sensor_id;sensor_type;location;lat;lon;timestamp;P1;durP1;ratioP1;P2;durP2;ratioP2
55800;SDS011;41730;51.960;20.158;2023-05-18T00:00:08;9.60;;;2.10;;
55800;SDS011;41730;51.960;20.158;2023-05-18T00:02:42;8.40;;;1.90;;
55800;SDS011;41730;51.960;20.158;2023-05-18T00:05:11;8.90;;;1.70;;
55800;SDS011;41730;51.960;20.158;2023-05-18T00:07:40;7.00;;;1.80;;
55800;SDS011;41730;51.960;20.158;2023-05-18T00:10:11;5.40;;;1.70;;
55800;SDS011;41730;51.960;20.158;2023-05-18T00:12:40;9.40;;;1.90;;
55800;SDS011;41730;51.960;20.158;2023-05-18T00:15:09;8.90;;;2.00;;
55800;SDS011;41730;51.960;20.158;2023-05-18T00:17:38;5.20;;;1.60;;
55800;SDS011;41730;51.960;20.158;2023-05-18T00:20:09;9.00;;;1.90;;
55800;SDS011;41730;51.960;20.158;2023-05-18T00:22:38;9.10;;;2.20;;
55800;SDS011;41730;51.960;20.158;2023-05-18T00:25:08;7.20;;;1.40;;
55800;SDS011;41730;51.960;20.158;2023-05-18T00:27:37;11.10;;;1.70;;
55800;SDS011;41730;51.960;20.158;2023-05-18T00:30:07;7.50;;;2.20;;
55800;SDS011;41730;51.960;20.158;2023-05-18T00:32:38;11.10;;;2.40;;
55800;SDS011;41730;51.960;20.158;2023-05-18T00:35:07;6.10;;;2.00;;
55800;SDS011;41730;51.960;20.158;2023-05-18T00:37:36;9.50;;;2.40;;
55800;SDS011;41730;51.960;20.158;2023-05-18T00:40:06;12.10;;;2.40;;
55800;SDS011;41730;51.960;20.158;2023-05-18T00:42:37;8.80;;;2.20;;
55800;SDS011;41730;51.960;20.158;2023-05-18T00:45:08;11.20;;;2.80;;
55800;SDS011;41730;51.960;20.158;2023-05-18T00:47:37;6.90;;;2.00;;
55800;SDS011;41730;51.960;20.158;2023-05-18T00:50:07;8.70;;;2.20;;
55800;SDS011;41730;51.960;20.158;2023-05-18T00:52:37;8.80;;;2.10;;
55800;SDS011;41730;51.960;20.158;2023-05-18T00:55:08;7.40;;;2.00;;
55800;SDS011;41730;51.960;20.158;2023-05-18T00:57:38;11.70;;;2.30;;
55800;SDS011;41730;51.960;20.158;2023-05-18T01:00:11;8.40;;;2.20;;
55800;SDS011;41730;51.960;20.158;2023-05-18T01:02:41;9.40;;;2.00;;
55800;SDS011;41730;51.960;20.158;2023-05-18T01:05:12;5.00;;;1.60;;
55800;SDS011;41730;51.960;20.158;2023-05-18T01:07:44;9.10;;;2.40;;
55800;SDS011;41730;51.960;20.158;2023-05-18T01:10:14;7.40;;;1.80;;
55800;SDS011;41730;51.960;20.158;2023-05-18T01:12:47;8.90;;;1.90;;
55800;SDS011;41730;51.960;20.158;2023-05-18T01:17:56;12.70;;;2.50;;
55800;SDS011;41730;51.960;20.158;2023-05-18T01:20:34;7.10;;;1.90;;
55800;SDS011;41730;51.960;20.158;2023-05-18T01:26:15;15.40;;;2.40;;
55800;SDS011;41730;51.960;20.158;2023-05-18T01:28:51;5.20;;;1.60;;
55800;SDS011;41730;51.960;20.158;2023-05-18T01:31:23;8.90;;;2.20;;
55800;SDS011;41730;51.960;20.158;2023-05-18T01:33:52;7.70;;;1.70;;
55800;SDS011;41730;51.960;20.158;2023-05-18T01:36:21;7.00;;;1.60;;
55800;SDS011;41730;51.960;20.158;2023-05-18T01:38:50;7.90;;;2.20;;
55800;SDS011;41730;51.960;20.158;2023-05-18T01:41:21;8.70;;;2.00;;
55800;SDS011;41730;51.960;20.158;2023-05-18T01:43:52;8.40;;;2.00;;
55800;SDS011;41730;51.960;20.158;2023-05-18T01:46:31;11.40;;;1.70;;
55800;SDS011;41730;51.960;20.158;2023-05-18T01:49:10;6.50;;;1.90;;
55800;SDS011;41730;51.960;20.158;2023-05-18T01:51:44;9.80;;;2.20;;
55800;SDS011;41730;51.960;20.158;2023-05-18T01:54:16;5.70;;;1.40;;
55800;SDS011;41730;51.960;20.158;2023-05-18T01:56:46;6.70;;;2.00;;
55800;SDS011;41730;51.960;20.158;2023-05-18T01:59:19;9.20;;;2.00;;
55800;SDS011;41730;51.960;20.158;2023-05-18T02:01:50;11.80;;;2.00;;
55800;SDS011;41730;51.960;20.158;2023-05-18T02:04:26;9.30;;;1.80;;
55800;SDS011;41730;51.960;20.158;2023-05-18T02:06:55;9.70;;;1.80;;
55800;SDS011;41730;51.960;20.158;2023-05-18T02:09:23;12.80;;;2.50;;
55800;SDS011;41730;51.960;20.158;2023-05-18T02:11:52;7.50;;;2.10;;
55800;SDS011;41730;51.960;20.158;2023-05-18T02:14:21;6.50;;;1.90;;
55800;SDS011;41730;51.960;20.158;2023-05-18T02:16:50;10.10;;;2.30;;
55800;SDS011;41730;51.960;20.158;2023-05-18T02:19:19;9.70;;;2.50;;
55800;SDS011;41730;51.960;20.158;2023-05-18T02:21:48;7.50;;;1.80;;
55800;SDS011;41730;51.960;20.158;2023-05-18T02:24:17;7.50;;;2.40;;
55800;SDS011;41730;51.960;20.158;2023-05-18T02:26:48;11.90;;;2.70;;
55800;SDS011;41730;51.960;20.158;2023-05-18T02:29:17;8.80;;;2.10;;
55800;SDS011;41730;51.960;20.158;2023-05-18T02:31:46;6.30;;;2.10;;
55800;SDS011;41730;51.960;20.158;2023-05-18T02:34:15;7.10;;;2.20;;
55800;SDS011;41730;51.960;20.158;2023-05-18T02:36:45;8.50;;;2.70;;
55800;SDS011;41730;51.960;20.158;2023-05-18T02:39:14;8.90;;;1.80;;
55800;SDS011;41730;51.960;20.158;2023-05-18T02:41:43;5.90;;;1.90;;
55800;SDS011;41730;51.960;20.158;2023-05-18T02:44:12;7.50;;;2.30;;
55800;SDS011;41730;51.960;20.158;2023-05-18T02:46:41;8.90;;;2.30;;
55800;SDS011;41730;51.960;20.158;2023-05-18T02:49:10;9.70;;;2.00;;
55800;SDS011;41730;51.960;20.158;2023-05-18T02:51:39;9.80;;;2.50;;
55800;SDS011;41730;51.960;20.158;2023-05-18T02:54:07;5.00;;;1.70;;
55800;SDS011;41730;51.960;20.158;2023-05-18T02:56:37;12.10;;;2.90;;
55800;SDS011;41730;51.960;20.158;2023-05-18T02:59:07;9.00;;;2.30;;
55800;SDS011;41730;51.960;20.158;2023-05-18T03:01:37;7.90;;;2.00;;
55800;SDS011;41730;51.960;20.158;2023-05-18T03:04:07;7.20;;;2.40;;
55800;SDS011;41730;51.960;20.158;2023-05-18T03:06:36;7.10;;;2.10;;
55800;SDS011;41730;51.960;20.158;2023-05-18T03:09:05;6.90;;;2.30;;
55800;SDS011;41730;51.960;20.158;2023-05-18T03:11:34;6.90;;;2.60;;
55800;SDS011;41730;51.960;20.158;2023-05-18T03:14:04;7.70;;;2.50;;
55800;SDS011;41730;51.960;20.158;2023-05-18T03:16:33;8.60;;;2.30;;
55800;SDS011;41730;51.960;20.158;2023-05-18T03:19:05;10.50;;;2.20;;
55800;SDS011;41730;51.960;20.158;2023-05-18T03:21:34;7.20;;;2.00;;
55800;SDS011;41730;51.960;20.158;2023-05-18T03:24:03;7.20;;;2.00;;
55800;SDS011;41730;51.960;20.158;2023-05-18T03:26:36;11.00;;;2.20;;
55800;SDS011;41730;51.960;20.158;2023-05-18T03:29:16;7.80;;;2.00;;
55800;SDS011;41730;51.960;20.158;2023-05-18T03:32:01;8.40;;;2.30;;
55800;SDS011;41730;51.960;20.158;2023-05-18T03:34:41;9.50;;;2.20;;
55800;SDS011;41730;51.960;20.158;2023-05-18T03:37:22;9.60;;;2.60;;
55800;SDS011;41730;51.960;20.158;2023-05-18T03:40:06;10.00;;;2.40;;
55800;SDS011;41730;51.960;20.158;2023-05-18T03:42:41;5.70;;;2.00;;
55800;SDS011;41730;51.960;20.158;2023-05-18T03:45:10;9.50;;;2.40;;
55800;SDS011;41730;51.960;20.158;2023-05-18T03:47:39;7.80;;;2.10;;
55800;SDS011;41730;51.960;20.158;2023-05-18T03:50:09;8.80;;;2.60;;
55800;SDS011;41730;51.960;20.158;2023-05-18T03:52:38;10.60;;;2.60;;
55800;SDS011;41730;51.960;20.158;2023-05-18T03:55:10;6.60;;;2.30;;
55800;SDS011;41730;51.960;20.158;2023-05-18T03:57:39;8.00;;;2.40;;
55800;SDS011;41730;51.960;20.158;2023-05-18T04:00:09;6.70;;;2.10;;
55800;SDS011;41730;51.960;20.158;2023-05-18T04:02:39;10.30;;;2.60;;
55800;SDS011;41730;51.960;20.158;2023-05-18T04:05:08;11.20;;;2.60;;
55800;SDS011;41730;51.960;20.158;2023-05-18T04:07:38;7.20;;;2.40;;
55800;SDS011;41730;51.960;20.158;2023-05-18T04:10:12;7.80;;;2.30;;
55800;SDS011;41730;51.960;20.158;2023-05-18T04:12:43;9.20;;;2.70;;
55800;SDS011;41730;51.960;20.158;2023-05-18T04:15:12;8.40;;;2.60;;
55800;SDS011;41730;51.960;20.158;2023-05-18T04:17:41;8.40;;;2.30;;
55800;SDS011;41730;51.960;20.158;2023-05-18T04:20:11;10.70;;;2.70;;
55800;SDS011;41730;51.960;20.158;2023-05-18T04:22:41;7.20;;;2.20;;
55800;SDS011;41730;51.960;20.158;2023-05-18T04:25:14;9.40;;;2.70;;
55800;SDS011;41730;51.960;20.158;2023-05-18T04:27:43;5.80;;;2.40;;
55800;SDS011;41730;51.960;20.158;2023-05-18T04:30:13;9.30;;;2.30;;
55800;SDS011;41730;51.960;20.158;2023-05-18T04:32:45;6.60;;;2.10;;
55800;SDS011;41730;51.960;20.158;2023-05-18T04:35:13;5.50;;;2.00;;
55800;SDS011;41730;51.960;20.158;2023-05-18T04:37:44;10.10;;;2.30;;
55800;SDS011;41730;51.960;20.158;2023-05-18T04:40:13;8.40;;;2.40;;
55800;SDS011;41730;51.960;20.158;2023-05-18T04:42:42;12.40;;;2.50;;
55800;SDS011;41730;51.960;20.158;2023-05-18T04:45:13;9.70;;;2.40;;
55800;SDS011;41730;51.960;20.158;2023-05-18T04:47:43;8.90;;;2.50;;
55800;SDS011;41730;51.960;20.158;2023-05-18T04:50:14;7.60;;;2.00;;
55800;SDS011;41730;51.960;20.158;2023-05-18T04:52:44;8.20;;;2.60;;
55800;SDS011;41730;51.960;20.158;2023-05-18T04:55:15;7.70;;;2.30;;
55800;SDS011;41730;51.960;20.158;2023-05-18T04:57:48;4.90;;;2.00;;
55800;SDS011;41730;51.960;20.158;2023-05-18T05:00:20;10.00;;;2.40;;
55800;SDS011;41730;51.960;20.158;2023-05-18T05:02:50;5.90;;;2.40;;
55800;SDS011;41730;51.960;20.158;2023-05-18T05:05:20;6.90;;;2.20;;
55800;SDS011;41730;51.960;20.158;2023-05-18T05:07:49;6.30;;;2.20;;
55800;SDS011;41730;51.960;20.158;2023-05-18T05:10:20;8.90;;;2.40;;
55800;SDS011;41730;51.960;20.158;2023-05-18T05:12:50;7.30;;;1.90;;
55800;SDS011;41730;51.960;20.158;2023-05-18T05:15:19;6.00;;;1.90;;
55800;SDS011;41730;51.960;20.158;2023-05-18T05:17:48;6.40;;;1.80;;
55800;SDS011;41730;51.960;20.158;2023-05-18T05:20:17;8.80;;;1.90;;
55800;SDS011;41730;51.960;20.158;2023-05-18T05:22:46;4.60;;;2.00;;
55800;SDS011;41730;51.960;20.158;2023-05-18T05:25:16;10.40;;;2.60;;
55800;SDS011;41730;51.960;20.158;2023-05-18T05:27:45;7.80;;;2.20;;
55800;SDS011;41730;51.960;20.158;2023-05-18T05:30:14;8.00;;;2.10;;
55800;SDS011;41730;51.960;20.158;2023-05-18T05:32:43;7.90;;;2.20;;
55800;SDS011;41730;51.960;20.158;2023-05-18T05:35:13;11.30;;;2.20;;
55800;SDS011;41730;51.960;20.158;2023-05-18T05:37:42;7.50;;;1.80;;
55800;SDS011;41730;51.960;20.158;2023-05-18T05:40:11;9.60;;;2.20;;
55800;SDS011;41730;51.960;20.158;2023-05-18T05:42:40;6.80;;;1.90;;
55800;SDS011;41730;51.960;20.158;2023-05-18T05:45:10;8.80;;;2.40;;
55800;SDS011;41730;51.960;20.158;2023-05-18T05:47:39;7.80;;;2.30;;
55800;SDS011;41730;51.960;20.158;2023-05-18T05:50:09;4.70;;;2.00;;
55800;SDS011;41730;51.960;20.158;2023-05-18T05:52:38;9.80;;;1.90;;
55800;SDS011;41730;51.960;20.158;2023-05-18T05:55:07;8.10;;;2.40;;
55800;SDS011;41730;51.960;20.158;2023-05-18T05:57:36;9.00;;;2.20;;
55800;SDS011;41730;51.960;20.158;2023-05-18T06:00:09;8.90;;;2.00;;
55800;SDS011;41730;51.960;20.158;2023-05-18T06:02:40;7.00;;;2.20;;
55800;SDS011;41730;51.960;20.158;2023-05-18T06:05:09;7.80;;;2.40;;
55800;SDS011;41730;51.960;20.158;2023-05-18T06:07:38;6.80;;;2.30;;
55800;SDS011;41730;51.960;20.158;2023-05-18T06:10:07;6.50;;;2.20;;
55800;SDS011;41730;51.960;20.158;2023-05-18T06:12:36;7.20;;;2.20;;
55800;SDS011;41730;51.960;20.158;2023-05-18T06:15:06;9.30;;;2.20;;
55800;SDS011;41730;51.960;20.158;2023-05-18T06:17:36;6.50;;;2.10;;
55800;SDS011;41730;51.960;20.158;2023-05-18T06:20:07;11.70;;;2.60;;
55800;SDS011;41730;51.960;20.158;2023-05-18T06:22:37;3.40;;;1.50;;
55800;SDS011;41730;51.960;20.158;2023-05-18T06:25:07;16.40;;;2.40;;
55800;SDS011;41730;51.960;20.158;2023-05-18T06:27:37;9.20;;;1.80;;
55800;SDS011;41730;51.960;20.158;2023-05-18T06:30:08;7.20;;;2.20;;
55800;SDS011;41730;51.960;20.158;2023-05-18T06:32:38;4.80;;;1.80;;
55800;SDS011;41730;51.960;20.158;2023-05-18T06:35:09;4.80;;;1.80;;
55800;SDS011;41730;51.960;20.158;2023-05-18T06:37:38;7.40;;;1.80;;
55800;SDS011;41730;51.960;20.158;2023-05-18T06:40:08;8.30;;;1.90;;
55800;SDS011;41730;51.960;20.158;2023-05-18T06:42:38;8.50;;;2.60;;
55800;SDS011;41730;51.960;20.158;2023-05-18T06:45:07;9.60;;;2.60;;
55800;SDS011;41730;51.960;20.158;2023-05-18T06:47:37;8.50;;;2.20;;
55800;SDS011;41730;51.960;20.158;2023-05-18T06:50:07;5.40;;;1.90;;
55800;SDS011;41730;51.960;20.158;2023-05-18T06:52:37;7.90;;;1.90;;
55800;SDS011;41730;51.960;20.158;2023-05-18T06:55:07;7.20;;;2.00;;
55800;SDS011;41730;51.960;20.158;2023-05-18T06:57:37;6.20;;;1.50;;
55800;SDS011;41730;51.960;20.158;2023-05-18T07:00:07;8.40;;;3.00;;
55800;SDS011;41730;51.960;20.158;2023-05-18T07:02:38;4.40;;;1.30;;
55800;SDS011;41730;51.960;20.158;2023-05-18T07:05:09;3.30;;;1.40;;
55800;SDS011;41730;51.960;20.158;2023-05-18T07:07:37;4.30;;;1.40;;
55800;SDS011;41730;51.960;20.158;2023-05-18T07:10:08;6.60;;;1.90;;
55800;SDS011;41730;51.960;20.158;2023-05-18T07:12:38;6.80;;;1.60;;
55800;SDS011;41730;51.960;20.158;2023-05-18T07:15:08;4.50;;;1.60;;
55800;SDS011;41730;51.960;20.158;2023-05-18T07:17:38;6.80;;;1.60;;
55800;SDS011;41730;51.960;20.158;2023-05-18T07:20:09;3.80;;;1.50;;
55800;SDS011;41730;51.960;20.158;2023-05-18T07:22:39;6.30;;;1.90;;
55800;SDS011;41730;51.960;20.158;2023-05-18T07:25:09;4.00;;;1.70;;
55800;SDS011;41730;51.960;20.158;2023-05-18T07:27:37;4.40;;;1.60;;
55800;SDS011;41730;51.960;20.158;2023-05-18T07:30:08;5.10;;;1.70;;
55800;SDS011;41730;51.960;20.158;2023-05-18T07:32:37;4.80;;;1.50;;
55800;SDS011;41730;51.960;20.158;2023-05-18T07:35:07;4.90;;;1.60;;
55800;SDS011;41730;51.960;20.158;2023-05-18T07:37:36;4.20;;;1.50;;
55800;SDS011;41730;51.960;20.158;2023-05-18T07:40:06;5.30;;;1.40;;
55800;SDS011;41730;51.960;20.158;2023-05-18T07:42:37;4.20;;;1.20;;
55800;SDS011;41730;51.960;20.158;2023-05-18T07:45:09;5.20;;;1.20;;
55800;SDS011;41730;51.960;20.158;2023-05-18T07:47:39;5.90;;;1.70;;
55800;SDS011;41730;51.960;20.158;2023-05-18T07:50:08;4.70;;;1.50;;
55800;SDS011;41730;51.960;20.158;2023-05-18T07:52:37;3.80;;;1.40;;
55800;SDS011;41730;51.960;20.158;2023-05-18T07:55:07;2.30;;;1.20;;
55800;SDS011;41730;51.960;20.158;2023-05-18T07:57:37;6.60;;;1.30;;
55800;SDS011;41730;51.960;20.158;2023-05-18T08:00:08;6.90;;;1.60;;
55800;SDS011;41730;51.960;20.158;2023-05-18T08:02:38;5.10;;;1.20;;
55800;SDS011;41730;51.960;20.158;2023-05-18T08:05:08;5.10;;;1.50;;
55800;SDS011;41730;51.960;20.158;2023-05-18T08:07:37;4.60;;;1.30;;
55800;SDS011;41730;51.960;20.158;2023-05-18T08:10:07;4.50;;;1.30;;
55800;SDS011;41730;51.960;20.158;2023-05-18T08:12:37;8.00;;;1.80;;
55800;SDS011;41730;51.960;20.158;2023-05-18T08:15:08;5.90;;;1.50;;
55800;SDS011;41730;51.960;20.158;2023-05-18T08:17:38;4.90;;;1.20;;
55800;SDS011;41730;51.960;20.158;2023-05-18T08:20:08;5.20;;;1.20;;
55800;SDS011;41730;51.960;20.158;2023-05-18T08:22:39;2.40;;;1.00;;
55800;SDS011;41730;51.960;20.158;2023-05-18T08:25:08;7.00;;;1.40;;
55800;SDS011;41730;51.960;20.158;2023-05-18T08:27:37;5.80;;;1.20;;
55800;SDS011;41730;51.960;20.158;2023-05-18T08:30:07;2.40;;;1.00;;
55800;SDS011;41730;51.960;20.158;2023-05-18T08:32:37;5.50;;;1.10;;
55800;SDS011;41730;51.960;20.158;2023-05-18T08:35:07;4.40;;;1.20;;
55800;SDS011;41730;51.960;20.158;2023-05-18T08:37:37;4.20;;;1.30;;
55800;SDS011;41730;51.960;20.158;2023-05-18T08:40:07;3.60;;;1.00;;
55800;SDS011;41730;51.960;20.158;2023-05-18T08:42:39;4.10;;;1.00;;
55800;SDS011;41730;51.960;20.158;2023-05-18T08:45:20;5.80;;;1.60;;
55800;SDS011;41730;51.960;20.158;2023-05-18T08:47:56;4.80;;;0.90;;
55800;SDS011;41730;51.960;20.158;2023-05-18T08:50:28;3.90;;;1.20;;
55800;SDS011;41730;51.960;20.158;2023-05-18T08:53:00;3.30;;;1.00;;
55800;SDS011;41730;51.960;20.158;2023-05-18T08:55:31;3.60;;;1.20;;
55800;SDS011;41730;51.960;20.158;2023-05-18T08:58:03;5.20;;;1.10;;
55800;SDS011;41730;51.960;20.158;2023-05-18T09:00:34;3.20;;;1.00;;
55800;SDS011;41730;51.960;20.158;2023-05-18T09:03:03;4.60;;;1.00;;
55800;SDS011;41730;51.960;20.158;2023-05-18T09:05:33;3.10;;;1.10;;
55800;SDS011;41730;51.960;20.158;2023-05-18T09:08:03;5.00;;;0.80;;
55800;SDS011;41730;51.960;20.158;2023-05-18T09:10:34;4.40;;;1.00;;
55800;SDS011;41730;51.960;20.158;2023-05-18T09:13:05;5.40;;;1.20;;
55800;SDS011;41730;51.960;20.158;2023-05-18T09:15:36;4.10;;;1.10;;
55800;SDS011;41730;51.960;20.158;2023-05-18T09:18:05;6.10;;;1.30;;
55800;SDS011;41730;51.960;20.158;2023-05-18T09:20:34;3.70;;;1.10;;
55800;SDS011;41730;51.960;20.158;2023-05-18T09:23:04;4.50;;;1.20;;
55800;SDS011;41730;51.960;20.158;2023-05-18T09:25:33;3.00;;;0.80;;
55800;SDS011;41730;51.960;20.158;2023-05-18T09:28:09;4.70;;;0.80;;
55800;SDS011;41730;51.960;20.158;2023-05-18T09:30:41;3.30;;;0.90;;
55800;SDS011;41730;51.960;20.158;2023-05-18T09:33:17;5.20;;;0.90;;
55800;SDS011;41730;51.960;20.158;2023-05-18T09:35:49;2.80;;;0.90;;
55800;SDS011;41730;51.960;20.158;2023-05-18T09:38:20;3.00;;;0.90;;
55800;SDS011;41730;51.960;20.158;2023-05-18T09:40:50;5.00;;;0.90;;
55800;SDS011;41730;51.960;20.158;2023-05-18T09:43:19;2.10;;;0.80;;
55800;SDS011;41730;51.960;20.158;2023-05-18T09:45:48;4.20;;;0.90;;
55800;SDS011;41730;51.960;20.158;2023-05-18T09:48:17;2.40;;;0.80;;
55800;SDS011;41730;51.960;20.158;2023-05-18T09:50:50;2.20;;;1.00;;
55800;SDS011;41730;51.960;20.158;2023-05-18T09:53:19;3.00;;;1.10;;
55800;SDS011;41730;51.960;20.158;2023-05-18T09:55:48;2.70;;;0.80;;
55800;SDS011;41730;51.960;20.158;2023-05-18T09:58:17;5.30;;;1.00;;
55800;SDS011;41730;51.960;20.158;2023-05-18T10:00:46;2.80;;;0.60;;
55800;SDS011;41730;51.960;20.158;2023-05-18T10:03:18;2.50;;;0.80;;
55800;SDS011;41730;51.960;20.158;2023-05-18T10:05:49;2.70;;;0.70;;
55800;SDS011;41730;51.960;20.158;2023-05-18T10:08:18;2.30;;;0.90;;
55800;SDS011;41730;51.960;20.158;2023-05-18T10:10:48;2.30;;;0.70;;
55800;SDS011;41730;51.960;20.158;2023-05-18T10:13:17;3.60;;;0.80;;
55800;SDS011;41730;51.960;20.158;2023-05-18T10:15:47;1.90;;;0.60;;
55800;SDS011;41730;51.960;20.158;2023-05-18T10:18:19;4.30;;;1.00;;
55800;SDS011;41730;51.960;20.158;2023-05-18T10:20:49;3.30;;;1.00;;
55800;SDS011;41730;51.960;20.158;2023-05-18T10:23:20;3.30;;;0.90;;
55800;SDS011;41730;51.960;20.158;2023-05-18T10:25:50;3.60;;;1.10;;
55800;SDS011;41730;51.960;20.158;2023-05-18T10:28:20;1.90;;;1.00;;
55800;SDS011;41730;51.960;20.158;2023-05-18T10:33:23;3.70;;;0.90;;
55800;SDS011;41730;51.960;20.158;2023-05-18T10:35:56;2.90;;;0.90;;
55800;SDS011;41730;51.960;20.158;2023-05-18T10:38:26;3.50;;;0.90;;
55800;SDS011;41730;51.960;20.158;2023-05-18T10:40:56;3.10;;;0.90;;
55800;SDS011;41730;51.960;20.158;2023-05-18T10:43:27;3.80;;;1.10;;
55800;SDS011;41730;51.960;20.158;2023-05-18T10:45:57;2.90;;;0.90;;
55800;SDS011;41730;51.960;20.158;2023-05-18T10:48:28;2.10;;;0.90;;
55800;SDS011;41730;51.960;20.158;2023-05-18T10:50:57;4.10;;;1.20;;
55800;SDS011;41730;51.960;20.158;2023-05-18T10:53:32;1.70;;;0.80;;
55800;SDS011;41730;51.960;20.158;2023-05-18T10:56:02;4.70;;;0.90;;
55800;SDS011;41730;51.960;20.158;2023-05-18T10:58:33;6.20;;;1.00;;
55800;SDS011;41730;51.960;20.158;2023-05-18T11:01:04;3.70;;;1.10;;
55800;SDS011;41730;51.960;20.158;2023-05-18T11:03:38;2.20;;;0.70;;
55800;SDS011;41730;51.960;20.158;2023-05-18T11:06:08;1.50;;;0.60;;
55800;SDS011;41730;51.960;20.158;2023-05-18T11:08:41;2.80;;;0.80;;
55800;SDS011;41730;51.960;20.158;2023-05-18T11:11:13;2.00;;;0.80;;
55800;SDS011;41730;51.960;20.158;2023-05-18T11:13:47;3.10;;;0.90;;
55800;SDS011;41730;51.960;20.158;2023-05-18T11:16:17;2.60;;;0.90;;
55800;SDS011;41730;51.960;20.158;2023-05-18T11:18:47;2.60;;;0.70;;
55800;SDS011;41730;51.960;20.158;2023-05-18T11:21:20;2.30;;;0.90;;
55800;SDS011;41730;51.960;20.158;2023-05-18T11:24:19;2.80;;;0.80;;
55800;SDS011;41730;51.960;20.158;2023-05-18T11:26:50;5.90;;;0.90;;
55800;SDS011;41730;51.960;20.158;2023-05-18T11:29:21;2.80;;;0.60;;
55800;SDS011;41730;51.960;20.158;2023-05-18T11:31:51;1.60;;;0.60;;
55800;SDS011;41730;51.960;20.158;2023-05-18T11:34:34;1.40;;;0.60;;
55800;SDS011;41730;51.960;20.158;2023-05-18T11:37:06;2.40;;;0.70;;
55800;SDS011;41730;51.960;20.158;2023-05-18T11:39:36;3.80;;;0.70;;
55800;SDS011;41730;51.960;20.158;2023-05-18T11:42:30;3.20;;;0.80;;
55800;SDS011;41730;51.960;20.158;2023-05-18T11:45:05;3.00;;;0.80;;
55800;SDS011;41730;51.960;20.158;2023-05-18T11:50:06;3.00;;;0.50;;
55800;SDS011;41730;51.960;20.158;2023-05-18T11:52:44;2.30;;;0.60;;
55800;SDS011;41730;51.960;20.158;2023-05-18T11:55:14;2.70;;;0.70;;
55800;SDS011;41730;51.960;20.158;2023-05-18T11:57:47;3.00;;;0.70;;
55800;SDS011;41730;51.960;20.158;2023-05-18T12:00:19;4.10;;;0.50;;
55800;SDS011;41730;51.960;20.158;2023-05-18T12:02:50;1.60;;;0.80;;
55800;SDS011;41730;51.960;20.158;2023-05-18T12:05:23;2.40;;;0.60;;
55800;SDS011;41730;51.960;20.158;2023-05-18T12:07:56;2.10;;;0.60;;
55800;SDS011;41730;51.960;20.158;2023-05-18T12:10:26;2.00;;;0.80;;
55800;SDS011;41730;51.960;20.158;2023-05-18T12:12:57;7.00;;;1.00;;
55800;SDS011;41730;51.960;20.158;2023-05-18T12:15:27;3.10;;;0.70;;
55800;SDS011;41730;51.960;20.158;2023-05-18T12:17:57;2.60;;;0.90;;
55800;SDS011;41730;51.960;20.158;2023-05-18T12:20:26;1.60;;;0.70;;
55800;SDS011;41730;51.960;20.158;2023-05-18T12:22:55;3.80;;;0.90;;
55800;SDS011;41730;51.960;20.158;2023-05-18T12:25:24;1.80;;;0.80;;
55800;SDS011;41730;51.960;20.158;2023-05-18T12:27:54;4.20;;;0.70;;
55800;SDS011;41730;51.960;20.158;2023-05-18T12:30:24;1.70;;;0.50;;
55800;SDS011;41730;51.960;20.158;2023-05-18T12:33:00;2.00;;;0.60;;
55800;SDS011;41730;51.960;20.158;2023-05-18T12:35:30;2.60;;;0.70;;
55800;SDS011;41730;51.960;20.158;2023-05-18T12:38:00;6.40;;;0.90;;
55800;SDS011;41730;51.960;20.158;2023-05-18T12:40:34;3.90;;;0.70;;
55800;SDS011;41730;51.960;20.158;2023-05-18T12:43:10;1.60;;;0.60;;
55800;SDS011;41730;51.960;20.158;2023-05-18T12:45:40;2.40;;;0.60;;
55800;SDS011;41730;51.960;20.158;2023-05-18T12:48:12;2.10;;;0.60;;
55800;SDS011;41730;51.960;20.158;2023-05-18T12:50:45;2.30;;;0.70;;
55800;SDS011;41730;51.960;20.158;2023-05-18T12:53:15;4.00;;;0.80;;
55800;SDS011;41730;51.960;20.158;2023-05-18T12:55:44;1.90;;;0.70;;
55800;SDS011;41730;51.960;20.158;2023-05-18T12:58:22;2.30;;;0.70;;
55800;SDS011;41730;51.960;20.158;2023-05-18T13:00:51;6.00;;;0.90;;
55800;SDS011;41730;51.960;20.158;2023-05-18T13:03:19;5.10;;;1.00;;
55800;SDS011;41730;51.960;20.158;2023-05-18T13:06:01;2.30;;;0.90;;
55800;SDS011;41730;51.960;20.158;2023-05-18T13:08:32;1.70;;;0.70;;
55800;SDS011;41730;51.960;20.158;2023-05-18T13:11:02;2.90;;;0.90;;
55800;SDS011;41730;51.960;20.158;2023-05-18T13:16:29;2.80;;;0.70;;
55800;SDS011;41730;51.960;20.158;2023-05-18T13:19:01;2.40;;;1.00;;
55800;SDS011;41730;51.960;20.158;2023-05-18T13:21:31;3.60;;;0.80;;
55800;SDS011;41730;51.960;20.158;2023-05-18T13:24:01;3.20;;;0.90;;
55800;SDS011;41730;51.960;20.158;2023-05-18T13:26:30;4.70;;;0.80;;
55800;SDS011;41730;51.960;20.158;2023-05-18T13:29:00;2.20;;;0.80;;
55800;SDS011;41730;51.960;20.158;2023-05-18T13:31:29;1.60;;;0.60;;
55800;SDS011;41730;51.960;20.158;2023-05-18T13:33:58;1.80;;;0.60;;
55800;SDS011;41730;51.960;20.158;2023-05-18T13:36:27;3.30;;;0.90;;
55800;SDS011;41730;51.960;20.158;2023-05-18T13:38:59;6.40;;;0.90;;
55800;SDS011;41730;51.960;20.158;2023-05-18T13:41:31;1.70;;;0.70;;
55800;SDS011;41730;51.960;20.158;2023-05-18T13:44:04;3.50;;;1.00;;
55800;SDS011;41730;51.960;20.158;2023-05-18T13:46:35;2.00;;;0.80;;
55800;SDS011;41730;51.960;20.158;2023-05-18T13:49:04;2.30;;;0.80;;
55800;SDS011;41730;51.960;20.158;2023-05-18T13:51:33;2.40;;;0.80;;
55800;SDS011;41730;51.960;20.158;2023-05-18T13:54:02;1.80;;;0.60;;
55800;SDS011;41730;51.960;20.158;2023-05-18T13:56:33;4.50;;;0.80;;
55800;SDS011;41730;51.960;20.158;2023-05-18T13:59:02;2.90;;;0.70;;
55800;SDS011;41730;51.960;20.158;2023-05-18T14:01:31;4.10;;;0.80;;
55800;SDS011;41730;51.960;20.158;2023-05-18T14:04:00;2.60;;;1.00;;
55800;SDS011;41730;51.960;20.158;2023-05-18T14:06:29;2.10;;;0.70;;
55800;SDS011;41730;51.960;20.158;2023-05-18T14:08:58;4.30;;;0.90;;
55800;SDS011;41730;51.960;20.158;2023-05-18T14:11:27;1.80;;;0.70;;
55800;SDS011;41730;51.960;20.158;2023-05-18T14:13:58;3.10;;;0.90;;
55800;SDS011;41730;51.960;20.158;2023-05-18T14:16:28;1.50;;;0.70;;
55800;SDS011;41730;51.960;20.158;2023-05-18T14:18:56;2.40;;;0.80;;
55800;SDS011;41730;51.960;20.158;2023-05-18T14:21:25;2.90;;;1.20;;
55800;SDS011;41730;51.960;20.158;2023-05-18T14:23:54;4.30;;;0.80;;
55800;SDS011;41730;51.960;20.158;2023-05-18T14:26:23;4.30;;;0.90;;
55800;SDS011;41730;51.960;20.158;2023-05-18T14:28:52;3.40;;;0.70;;
55800;SDS011;41730;51.960;20.158;2023-05-18T14:31:23;2.00;;;0.70;;
55800;SDS011;41730;51.960;20.158;2023-05-18T14:33:52;3.60;;;1.00;;
55800;SDS011;41730;51.960;20.158;2023-05-18T14:36:22;2.60;;;0.90;;
55800;SDS011;41730;51.960;20.158;2023-05-18T14:38:51;2.90;;;0.90;;
55800;SDS011;41730;51.960;20.158;2023-05-18T14:41:19;5.00;;;1.00;;
55800;SDS011;41730;51.960;20.158;2023-05-18T14:43:48;3.20;;;0.80;;
55800;SDS011;41730;51.960;20.158;2023-05-18T14:46:19;4.90;;;0.90;;
55800;SDS011;41730;51.960;20.158;2023-05-18T14:48:49;7.50;;;0.90;;
55800;SDS011;41730;51.960;20.158;2023-05-18T14:51:18;2.70;;;0.80;;
55800;SDS011;41730;51.960;20.158;2023-05-18T14:53:47;4.40;;;1.00;;
55800;SDS011;41730;51.960;20.158;2023-05-18T14:56:16;3.40;;;0.80;;
55800;SDS011;41730;51.960;20.158;2023-05-18T14:58:45;2.40;;;0.80;;
55800;SDS011;41730;51.960;20.158;2023-05-18T15:01:14;5.70;;;1.00;;
55800;SDS011;41730;51.960;20.158;2023-05-18T15:03:43;2.70;;;0.70;;
55800;SDS011;41730;51.960;20.158;2023-05-18T15:06:12;2.90;;;0.70;;